sensor_id;sensor_type;location;lat;lon;timestamp;P1;durP1;ratioP1;P2;durP2;ratioP2
9342;SDS011;4710;51.382;7.244;2022-09-27T01:28:28;5.95;;;4.32;;
9342;SDS011;4710;51.382;7.244;2022-09-27T01:45:08;3.93;;;3.23;;
9342;SDS011;4710;51.382;7.244;2022-09-27T02:12:19;7.57;;;6.70;;
9342;SDS011;4710;51.382;7.244;2022-09-27T02:15:22;7.83;;;7.23;;
9342;SDS011;4710;51.382;7.244;2022-09-27T03:11:19;6.73;;;6.23;;
9342;SDS011;4710;51.382;7.244;2022-09-27T03:20:57;8.40;;;6.70;;
9342;SDS011;4710;51.382;7.244;2022-09-27T04:34:56;10.27;;;7.00;;
9342;SDS011;4710;51.382;7.244;2022-09-27T05:16:47;12.20;;;11.07;;
9342;SDS011;4710;51.382;7.244;2022-09-27T05:30:15;12.18;;;11.07;;
9342;SDS011;4710;51.382;7.244;2022-09-27T05:43:41;10.70;;;9.70;;
9342;SDS011;4710;51.382;7.244;2022-09-27T05:49:58;8.03;;;7.33;;
9342;SDS011;4710;51.382;7.244;2022-09-27T07:51:21;1.30;;;1.10;;
9342;SDS011;4710;51.382;7.244;2022-09-27T07:54:01;1.40;;;1.00;;
9342;SDS011;4710;51.382;7.244;2022-09-27T08:35:48;1.47;;;1.20;;
9342;SDS011;4710;51.382;7.244;2022-09-27T08:53:06;0.97;;;0.97;;
9342;SDS011;4710;51.382;7.244;2022-09-27T09:20:37;1.00;;;0.93;;
9342;SDS011;4710;51.382;7.244;2022-09-27T09:55:59;0.70;;;0.70;;
9342;SDS011;4710;51.382;7.244;2022-09-27T09:58:47;0.68;;;0.68;;
9342;SDS011;4710;51.382;7.244;2022-09-27T10:01:36;0.98;;;0.80;;
9342;SDS011;4710;51.382;7.244;2022-09-27T10:15:19;0.80;;;0.70;;
9342;SDS011;4710;51.382;7.244;2022-09-27T10:28:48;0.75;;;0.70;;
9342;SDS011;4710;51.382;7.244;2022-09-27T10:31:44;1.12;;;1.02;;
9342;SDS011;4710;51.382;7.244;2022-09-27T10:34:32;1.52;;;0.88;;
9342;SDS011;4710;51.382;7.244;2022-09-27T12:05:30;1.80;;;1.00;;
9342;SDS011;4710;51.382;7.244;2022-09-27T12:29:50;1.23;;;1.23;;
9342;SDS011;4710;51.382;7.244;2022-09-27T12:43:18;1.58;;;1.48;;
9342;SDS011;4710;51.382;7.244;2022-09-27T12:56:50;1.35;;;1.25;;
9342;SDS011;4710;51.382;7.244;2022-09-27T13:53:11;1.80;;;1.70;;
9342;SDS011;4710;51.382;7.244;2022-09-27T14:49:46;1.55;;;1.45;;
9342;SDS011;4710;51.382;7.244;2022-09-27T14:52:29;1.30;;;1.30;;
9342;SDS011;4710;51.382;7.244;2022-09-27T14:55:14;1.40;;;1.30;;
9342;SDS011;4710;51.382;7.244;2022-09-27T14:57:54;1.55;;;1.50;;
9342;SDS011;4710;51.382;7.244;2022-09-27T15:00:33;1.30;;;1.30;;
9342;SDS011;4710;51.382;7.244;2022-09-27T15:03:21;1.40;;;1.40;;
9342;SDS011;4710;51.382;7.244;2022-09-27T15:06:03;1.70;;;1.60;;
9342;SDS011;4710;51.382;7.244;2022-09-27T15:08:41;1.45;;;1.40;;
9342;SDS011;4710;51.382;7.244;2022-09-27T15:11:21;1.40;;;1.30;;
9342;SDS011;4710;51.382;7.244;2022-09-27T15:14:02;1.52;;;1.42;;
9342;SDS011;4710;51.382;7.244;2022-09-27T15:59:22;1.50;;;1.20;;
9342;SDS011;4710;51.382;7.244;2022-09-27T16:02:03;1.42;;;1.33;;
9342;SDS011;4710;51.382;7.244;2022-09-27T16:15:17;0.80;;;0.80;;
9342;SDS011;4710;51.382;7.244;2022-09-27T16:17:55;1.23;;;1.00;;
9342;SDS011;4710;51.382;7.244;2022-09-27T16:20:44;1.00;;;1.00;;
9342;SDS011;4710;51.382;7.244;2022-09-27T16:23:26;0.90;;;0.90;;
9342;SDS011;4710;51.382;7.244;2022-09-27T16:26:07;1.20;;;1.10;;
9342;SDS011;4710;51.382;7.244;2022-09-27T16:28:45;0.90;;;0.90;;
9342;SDS011;4710;51.382;7.244;2022-09-27T16:31:26;0.80;;;0.80;;
9342;SDS011;4710;51.382;7.244;2022-09-27T16:34:27;1.05;;;1.05;;
9342;SDS011;4710;51.382;7.244;2022-09-27T17:41:48;1.00;;;1.00;;
9342;SDS011;4710;51.382;7.244;2022-09-27T17:44:39;1.10;;;1.00;;
9342;SDS011;4710;51.382;7.244;2022-09-27T17:47:21;1.25;;;1.20;;
9342;SDS011;4710;51.382;7.244;2022-09-27T17:50:04;1.50;;;1.00;;
9342;SDS011;4710;51.382;7.244;2022-09-27T18:14:03;1.40;;;1.30;;
9342;SDS011;4710;51.382;7.244;2022-09-27T18:16:45;2.12;;;1.30;;
9342;SDS011;4710;51.382;7.244;2022-09-27T18:19:26;2.65;;;1.40;;
9342;SDS011;4710;51.382;7.244;2022-09-27T18:22:04;1.90;;;1.80;;
9342;SDS011;4710;51.382;7.244;2022-09-27T18:24:44;2.00;;;1.90;;
9342;SDS011;4710;51.382;7.244;2022-09-27T18:27:25;2.22;;;1.65;;
9342;SDS011;4710;51.382;7.244;2022-09-27T18:30:02;1.62;;;1.52;;
9342;SDS011;4710;51.382;7.244;2022-09-27T18:32:42;1.65;;;1.55;;
9342;SDS011;4710;51.382;7.244;2022-09-27T18:35:20;1.90;;;1.80;;
9342;SDS011;4710;51.382;7.244;2022-09-27T18:38:00;2.25;;;1.55;;
9342;SDS011;4710;51.382;7.244;2022-09-27T18:40:40;2.58;;;1.65;;
9342;SDS011;4710;51.382;7.244;2022-09-27T18:43:27;2.30;;;1.90;;
9342;SDS011;4710;51.382;7.244;2022-09-27T18:46:14;2.80;;;1.92;;
9342;SDS011;4710;51.382;7.244;2022-09-27T18:49:02;2.05;;;1.70;;
9342;SDS011;4710;51.382;7.244;2022-09-27T18:51:43;1.98;;;1.85;;
9342;SDS011;4710;51.382;7.244;2022-09-27T18:54:23;2.12;;;2.00;;
9342;SDS011;4710;51.382;7.244;2022-09-27T18:57:04;1.90;;;1.80;;
9342;SDS011;4710;51.382;7.244;2022-09-27T18:59:41;1.70;;;1.60;;
9342;SDS011;4710;51.382;7.244;2022-09-27T19:02:18;1.95;;;1.80;;
9342;SDS011;4710;51.382;7.244;2022-09-27T19:04:55;1.92;;;1.83;;
9342;SDS011;4710;51.382;7.244;2022-09-27T19:07:39;2.40;;;1.85;;
9342;SDS011;4710;51.382;7.244;2022-09-27T19:10:19;2.83;;;2.00;;
9342;SDS011;4710;51.382;7.244;2022-09-27T19:12:56;2.00;;;1.87;;
9342;SDS011;4710;51.382;7.244;2022-09-27T19:15:37;2.00;;;1.80;;
9342;SDS011;4710;51.382;7.244;2022-09-27T19:18:14;1.90;;;1.80;;
9342;SDS011;4710;51.382;7.244;2022-09-27T19:21:00;2.35;;;1.92;;
9342;SDS011;4710;51.382;7.244;2022-09-27T19:23:35;2.10;;;1.90;;
9342;SDS011;4710;51.382;7.244;2022-09-27T19:26:13;1.90;;;1.80;;
9342;SDS011;4710;51.382;7.244;2022-09-27T19:28:53;2.10;;;1.90;;
9342;SDS011;4710;51.382;7.244;2022-09-27T19:31:36;2.10;;;1.90;;
9342;SDS011;4710;51.382;7.244;2022-09-27T19:34:13;2.03;;;1.92;;
9342;SDS011;4710;51.382;7.244;2022-09-27T19:36:50;2.42;;;2.22;;
9342;SDS011;4710;51.382;7.244;2022-09-27T19:39:31;2.55;;;2.10;;
9342;SDS011;4710;51.382;7.244;2022-09-27T19:42:08;2.00;;;1.90;;
9342;SDS011;4710;51.382;7.244;2022-09-27T19:44:45;4.53;;;2.00;;
9342;SDS011;4710;51.382;7.244;2022-09-27T19:47:23;3.60;;;2.10;;
9342;SDS011;4710;51.382;7.244;2022-09-27T19:50:03;1.90;;;1.80;;
9342;SDS011;4710;51.382;7.244;2022-09-27T19:52:42;2.00;;;1.92;;
9342;SDS011;4710;51.382;7.244;2022-09-27T19:55:23;2.20;;;2.10;;
9342;SDS011;4710;51.382;7.244;2022-09-27T19:58:03;2.65;;;2.45;;
9342;SDS011;4710;51.382;7.244;2022-09-27T20:00:40;2.42;;;2.20;;
9342;SDS011;4710;51.382;7.244;2022-09-27T20:03:18;2.50;;;2.40;;
9342;SDS011;4710;51.382;7.244;2022-09-27T20:05:59;3.30;;;2.60;;
9342;SDS011;4710;51.382;7.244;2022-09-27T20:08:39;2.35;;;2.25;;
9342;SDS011;4710;51.382;7.244;2022-09-27T20:11:17;2.53;;;2.33;;
9342;SDS011;4710;51.382;7.244;2022-09-27T20:13:57;2.80;;;2.60;;
9342;SDS011;4710;51.382;7.244;2022-09-27T20:16:40;2.65;;;2.45;;
9342;SDS011;4710;51.382;7.244;2022-09-27T20:19:17;2.83;;;2.60;;
9342;SDS011;4710;51.382;7.244;2022-09-27T20:21:55;3.87;;;2.67;;
9342;SDS011;4710;51.382;7.244;2022-09-27T20:24:35;2.70;;;2.50;;
9342;SDS011;4710;51.382;7.244;2022-09-27T20:27:16;5.03;;;2.72;;
9342;SDS011;4710;51.382;7.244;2022-09-27T20:29:59;2.60;;;2.47;;
9342;SDS011;4710;51.382;7.244;2022-09-27T20:32:40;2.80;;;2.60;;
9342;SDS011;4710;51.382;7.244;2022-09-27T20:35:31;3.20;;;3.00;;
9342;SDS011;4710;51.382;7.244;2022-09-27T21:34:25;2.90;;;2.67;;
9342;SDS011;4710;51.382;7.244;2022-09-27T21:37:09;2.62;;;2.40;;
9342;SDS011;4710;51.382;7.244;2022-09-27T21:39:57;2.10;;;2.00;;
9342;SDS011;4710;51.382;7.244;2022-09-27T21:42:38;1.98;;;1.87;;
9342;SDS011;4710;51.382;7.244;2022-09-27T21:45:15;2.00;;;1.90;;
9342;SDS011;4710;51.382;7.244;2022-09-27T21:47:52;2.10;;;1.95;;
9342;SDS011;4710;51.382;7.244;2022-09-27T21:50:30;1.70;;;1.70;;
9342;SDS011;4710;51.382;7.244;2022-09-27T21:53:15;1.50;;;1.50;;
9342;SDS011;4710;51.382;7.244;2022-09-27T21:56:07;2.08;;;1.87;;
9342;SDS011;4710;51.382;7.244;2022-09-27T21:58:52;1.80;;;1.70;;
9342;SDS011;4710;51.382;7.244;2022-09-27T22:01:36;3.55;;;1.75;;
9342;SDS011;4710;51.382;7.244;2022-09-27T22:04:13;2.05;;;1.85;;
9342;SDS011;4710;51.382;7.244;2022-09-27T22:17:25;1.50;;;1.50;;
9342;SDS011;4710;51.382;7.244;2022-09-27T22:20:07;2.10;;;1.50;;
9342;SDS011;4710;51.382;7.244;2022-09-27T22:22:46;1.80;;;1.70;;
9342;SDS011;4710;51.382;7.244;2022-09-27T22:25:24;1.50;;;1.50;;
9342;SDS011;4710;51.382;7.244;2022-09-27T22:28:01;1.90;;;1.70;;
9342;SDS011;4710;51.382;7.244;2022-09-27T22:30:42;1.70;;;1.60;;
9342;SDS011;4710;51.382;7.244;2022-09-27T22:33:20;1.90;;;1.80;;
9342;SDS011;4710;51.382;7.244;2022-09-27T22:35:57;1.62;;;1.52;;
9342;SDS011;4710;51.382;7.244;2022-09-27T22:38:38;1.70;;;1.70;;
9342;SDS011;4710;51.382;7.244;2022-09-27T22:41:15;1.62;;;1.52;;
9342;SDS011;4710;51.382;7.244;2022-09-27T22:43:56;1.55;;;1.50;;
9342;SDS011;4710;51.382;7.244;2022-09-27T22:46:35;1.60;;;1.60;;
9342;SDS011;4710;51.382;7.244;2022-09-27T22:49:16;1.50;;;1.50;;
9342;SDS011;4710;51.382;7.244;2022-09-27T22:51:56;1.30;;;1.30;;
9342;SDS011;4710;51.382;7.244;2022-09-27T22:54:41;1.45;;;1.40;;
9342;SDS011;4710;51.382;7.244;2022-09-27T22:57:33;1.33;;;1.33;;
9342;SDS011;4710;51.382;7.244;2022-09-27T23:00:13;1.52;;;1.52;;
9342;SDS011;4710;51.382;7.244;2022-09-27T23:03:00;1.40;;;1.40;;
9342;SDS011;4710;51.382;7.244;2022-09-27T23:05:37;1.52;;;1.50;;
9342;SDS011;4710;51.382;7.244;2022-09-27T23:08:18;1.70;;;1.62;;
9342;SDS011;4710;51.382;7.244;2022-09-27T23:11:00;2.50;;;1.70;;
9342;SDS011;4710;51.382;7.244;2022-09-27T23:48:47;3.27;;;2.10;;
